sensor_id;sensor_type;location;lat;lon;timestamp;P1;durP1;ratioP1;P2;durP2;ratioP2
40453;SDS011;26160;51.858;4.398;2023-11-19T00:01:32;41.78;;;5.88;;
40453;SDS011;26160;51.858;4.398;2023-11-19T00:03:59;38.53;;;5.75;;
40453;SDS011;26160;51.858;4.398;2023-11-19T00:06:26;37.60;;;7.15;;
40453;SDS011;26160;51.858;4.398;2023-11-19T00:08:53;38.33;;;6.30;;
40453;SDS011;26160;51.858;4.398;2023-11-19T00:11:19;52.47;;;7.55;;
40453;SDS011;26160;51.858;4.398;2023-11-19T00:13:45;46.90;;;7.90;;
40453;SDS011;26160;51.858;4.398;2023-11-19T00:16:12;42.20;;;6.95;;
40453;SDS011;26160;51.858;4.398;2023-11-19T00:18:38;46.63;;;7.50;;
40453;SDS011;26160;51.858;4.398;2023-11-19T00:21:05;46.50;;;7.32;;
40453;SDS011;26160;51.858;4.398;2023-11-19T00:23:33;48.65;;;7.57;;
40453;SDS011;26160;51.858;4.398;2023-11-19T00:25:59;49.47;;;7.68;;
40453;SDS011;26160;51.858;4.398;2023-11-19T00:28:25;39.05;;;6.13;;
40453;SDS011;26160;51.858;4.398;2023-11-19T00:30:52;41.83;;;8.60;;
40453;SDS011;26160;51.858;4.398;2023-11-19T00:33:18;52.13;;;7.85;;
40453;SDS011;26160;51.858;4.398;2023-11-19T00:35:44;47.17;;;7.00;;
40453;SDS011;26160;51.858;4.398;2023-11-19T00:38:10;55.10;;;7.90;;
40453;SDS011;26160;51.858;4.398;2023-11-19T00:40:37;56.00;;;7.55;;
40453;SDS011;26160;51.858;4.398;2023-11-19T00:43:03;62.90;;;9.48;;
40453;SDS011;26160;51.858;4.398;2023-11-19T00:45:29;54.33;;;8.10;;
40453;SDS011;26160;51.858;4.398;2023-11-19T00:47:55;51.05;;;8.60;;
40453;SDS011;26160;51.858;4.398;2023-11-19T00:50:22;63.85;;;9.38;;
40453;SDS011;26160;51.858;4.398;2023-11-19T00:52:48;51.33;;;8.00;;
40453;SDS011;26160;51.858;4.398;2023-11-19T00:55:14;57.35;;;8.48;;
40453;SDS011;26160;51.858;4.398;2023-11-19T00:57:40;54.22;;;8.27;;
40453;SDS011;26160;51.858;4.398;2023-11-19T01:00:07;63.88;;;8.85;;
40453;SDS011;26160;51.858;4.398;2023-11-19T01:05:15;61.70;;;10.60;;
40453;SDS011;26160;51.858;4.398;2023-11-19T01:07:41;73.28;;;10.30;;
40453;SDS011;26160;51.858;4.398;2023-11-19T01:10:08;69.75;;;10.23;;
40453;SDS011;26160;51.858;4.398;2023-11-19T01:12:35;79.70;;;11.02;;
40453;SDS011;26160;51.858;4.398;2023-11-19T01:15:01;76.35;;;10.88;;
40453;SDS011;26160;51.858;4.398;2023-11-19T01:17:28;60.33;;;9.43;;
40453;SDS011;26160;51.858;4.398;2023-11-19T01:19:57;70.45;;;10.52;;
40453;SDS011;26160;51.858;4.398;2023-11-19T01:22:23;75.15;;;10.98;;
40453;SDS011;26160;51.858;4.398;2023-11-19T01:24:50;79.22;;;11.18;;
40453;SDS011;26160;51.858;4.398;2023-11-19T01:27:17;75.65;;;11.65;;
40453;SDS011;26160;51.858;4.398;2023-11-19T01:29:43;84.43;;;11.73;;
40453;SDS011;26160;51.858;4.398;2023-11-19T01:32:10;82.53;;;11.32;;
40453;SDS011;26160;51.858;4.398;2023-11-19T01:34:38;69.32;;;10.88;;
40453;SDS011;26160;51.858;4.398;2023-11-19T01:37:04;83.80;;;11.45;;
40453;SDS011;26160;51.858;4.398;2023-11-19T01:39:30;73.60;;;12.05;;
40453;SDS011;26160;51.858;4.398;2023-11-19T01:41:57;80.68;;;11.35;;
40453;SDS011;26160;51.858;4.398;2023-11-19T01:44:23;74.97;;;11.98;;
40453;SDS011;26160;51.858;4.398;2023-11-19T01:46:49;75.47;;;10.73;;
40453;SDS011;26160;51.858;4.398;2023-11-19T01:49:15;75.82;;;12.43;;
40453;SDS011;26160;51.858;4.398;2023-11-19T01:51:43;68.10;;;10.32;;
40453;SDS011;26160;51.858;4.398;2023-11-19T01:54:10;70.05;;;11.20;;
40453;SDS011;26160;51.858;4.398;2023-11-19T01:56:37;68.10;;;10.00;;
40453;SDS011;26160;51.858;4.398;2023-11-19T01:59:09;70.20;;;10.55;;
40453;SDS011;26160;51.858;4.398;2023-11-19T02:04:12;68.47;;;10.88;;
40453;SDS011;26160;51.858;4.398;2023-11-19T02:06:40;62.92;;;10.23;;
40453;SDS011;26160;51.858;4.398;2023-11-19T02:09:08;79.10;;;9.50;;
40453;SDS011;26160;51.858;4.398;2023-11-19T02:11:34;78.15;;;11.85;;
40453;SDS011;26160;51.858;4.398;2023-11-19T02:14:00;82.10;;;11.95;;
40453;SDS011;26160;51.858;4.398;2023-11-19T02:16:28;77.97;;;11.10;;
40453;SDS011;26160;51.858;4.398;2023-11-19T02:18:55;64.80;;;9.50;;
40453;SDS011;26160;51.858;4.398;2023-11-19T02:21:21;66.85;;;11.25;;
40453;SDS011;26160;51.858;4.398;2023-11-19T02:23:47;62.72;;;9.77;;
40453;SDS011;26160;51.858;4.398;2023-11-19T02:26:28;81.05;;;11.95;;
40453;SDS011;26160;51.858;4.398;2023-11-19T02:29:00;85.28;;;11.80;;
40453;SDS011;26160;51.858;4.398;2023-11-19T02:31:26;68.70;;;11.00;;
40453;SDS011;26160;51.858;4.398;2023-11-19T02:33:53;83.55;;;11.23;;
40453;SDS011;26160;51.858;4.398;2023-11-19T02:36:19;78.63;;;12.15;;
40453;SDS011;26160;51.858;4.398;2023-11-19T02:38:45;77.35;;;11.48;;
40453;SDS011;26160;51.858;4.398;2023-11-19T02:41:11;82.93;;;11.88;;
40453;SDS011;26160;51.858;4.398;2023-11-19T02:43:39;83.50;;;12.60;;
40453;SDS011;26160;51.858;4.398;2023-11-19T02:46:05;92.38;;;12.88;;
40453;SDS011;26160;51.858;4.398;2023-11-19T02:48:33;76.03;;;12.27;;
40453;SDS011;26160;51.858;4.398;2023-11-19T02:51:01;81.28;;;11.77;;
40453;SDS011;26160;51.858;4.398;2023-11-19T02:53:29;72.03;;;11.32;;
40453;SDS011;26160;51.858;4.398;2023-11-19T02:55:56;80.07;;;12.13;;
40453;SDS011;26160;51.858;4.398;2023-11-19T02:58:31;95.63;;;15.80;;
40453;SDS011;26160;51.858;4.398;2023-11-19T03:00:57;87.05;;;13.10;;
40453;SDS011;26160;51.858;4.398;2023-11-19T03:03:25;79.68;;;11.65;;
40453;SDS011;26160;51.858;4.398;2023-11-19T03:05:56;90.07;;;12.77;;
40453;SDS011;26160;51.858;4.398;2023-11-19T03:08:23;88.82;;;11.32;;
40453;SDS011;26160;51.858;4.398;2023-11-19T03:10:49;78.82;;;12.02;;
40453;SDS011;26160;51.858;4.398;2023-11-19T03:13:15;79.50;;;11.10;;
40453;SDS011;26160;51.858;4.398;2023-11-19T03:15:44;89.07;;;11.88;;
40453;SDS011;26160;51.858;4.398;2023-11-19T03:18:10;70.47;;;10.52;;
40453;SDS011;26160;51.858;4.398;2023-11-19T03:20:36;67.80;;;11.52;;
40453;SDS011;26160;51.858;4.398;2023-11-19T03:23:03;82.25;;;10.98;;
40453;SDS011;26160;51.858;4.398;2023-11-19T03:25:29;65.78;;;10.55;;
40453;SDS011;26160;51.858;4.398;2023-11-19T03:27:59;69.18;;;10.70;;
40453;SDS011;26160;51.858;4.398;2023-11-19T03:30:29;66.03;;;9.82;;
40453;SDS011;26160;51.858;4.398;2023-11-19T03:32:56;65.60;;;9.43;;
40453;SDS011;26160;51.858;4.398;2023-11-19T03:35:23;73.60;;;11.45;;
40453;SDS011;26160;51.858;4.398;2023-11-19T03:37:50;68.10;;;11.07;;
40453;SDS011;26160;51.858;4.398;2023-11-19T03:40:17;96.25;;;11.10;;
40453;SDS011;26160;51.858;4.398;2023-11-19T03:42:44;78.53;;;10.85;;
40453;SDS011;26160;51.858;4.398;2023-11-19T03:45:11;74.15;;;11.80;;
40453;SDS011;26160;51.858;4.398;2023-11-19T03:47:37;73.50;;;11.35;;
40453;SDS011;26160;51.858;4.398;2023-11-19T03:50:04;87.03;;;12.10;;
40453;SDS011;26160;51.858;4.398;2023-11-19T03:52:32;69.35;;;10.02;;
40453;SDS011;26160;51.858;4.398;2023-11-19T03:54:58;63.30;;;9.07;;
40453;SDS011;26160;51.858;4.398;2023-11-19T03:57:24;73.82;;;11.00;;
40453;SDS011;26160;51.858;4.398;2023-11-19T03:59:50;72.05;;;12.30;;
40453;SDS011;26160;51.858;4.398;2023-11-19T04:02:16;76.70;;;11.40;;
40453;SDS011;26160;51.858;4.398;2023-11-19T04:04:43;74.65;;;11.52;;
40453;SDS011;26160;51.858;4.398;2023-11-19T04:07:09;71.05;;;9.70;;
40453;SDS011;26160;51.858;4.398;2023-11-19T04:09:35;73.07;;;11.52;;
40453;SDS011;26160;51.858;4.398;2023-11-19T04:12:03;77.38;;;11.43;;
40453;SDS011;26160;51.858;4.398;2023-11-19T04:14:29;75.38;;;10.52;;
40453;SDS011;26160;51.858;4.398;2023-11-19T04:16:55;73.07;;;11.15;;
40453;SDS011;26160;51.858;4.398;2023-11-19T04:19:21;66.30;;;10.32;;
40453;SDS011;26160;51.858;4.398;2023-11-19T04:21:48;58.38;;;9.60;;
40453;SDS011;26160;51.858;4.398;2023-11-19T04:24:14;66.40;;;11.27;;
40453;SDS011;26160;51.858;4.398;2023-11-19T04:26:41;87.97;;;11.15;;
40453;SDS011;26160;51.858;4.398;2023-11-19T04:29:14;65.38;;;10.05;;
40453;SDS011;26160;51.858;4.398;2023-11-19T04:31:43;69.57;;;10.68;;
40453;SDS011;26160;51.858;4.398;2023-11-19T04:34:10;82.60;;;11.90;;
40453;SDS011;26160;51.858;4.398;2023-11-19T04:36:36;74.32;;;11.30;;
40453;SDS011;26160;51.858;4.398;2023-11-19T04:39:03;69.47;;;12.02;;
40453;SDS011;26160;51.858;4.398;2023-11-19T04:41:48;78.00;;;10.77;;
40453;SDS011;26160;51.858;4.398;2023-11-19T04:44:15;76.43;;;11.07;;
40453;SDS011;26160;51.858;4.398;2023-11-19T04:46:42;75.28;;;12.55;;
40453;SDS011;26160;51.858;4.398;2023-11-19T04:49:10;65.88;;;10.50;;
40453;SDS011;26160;51.858;4.398;2023-11-19T04:51:39;79.40;;;12.23;;
40453;SDS011;26160;51.858;4.398;2023-11-19T04:54:07;96.72;;;13.73;;
40453;SDS011;26160;51.858;4.398;2023-11-19T04:56:34;77.05;;;11.90;;
40453;SDS011;26160;51.858;4.398;2023-11-19T04:59:05;63.60;;;9.73;;
40453;SDS011;26160;51.858;4.398;2023-11-19T05:01:32;76.72;;;10.90;;
40453;SDS011;26160;51.858;4.398;2023-11-19T05:03:58;78.85;;;10.50;;
40453;SDS011;26160;51.858;4.398;2023-11-19T05:06:28;63.47;;;11.00;;
40453;SDS011;26160;51.858;4.398;2023-11-19T05:08:55;65.82;;;10.90;;
40453;SDS011;26160;51.858;4.398;2023-11-19T05:11:22;66.90;;;10.95;;
40453;SDS011;26160;51.858;4.398;2023-11-19T05:13:48;75.15;;;11.93;;
40453;SDS011;26160;51.858;4.398;2023-11-19T05:16:14;74.28;;;11.02;;
40453;SDS011;26160;51.858;4.398;2023-11-19T05:18:41;81.25;;;12.02;;
40453;SDS011;26160;51.858;4.398;2023-11-19T05:21:07;73.40;;;10.43;;
40453;SDS011;26160;51.858;4.398;2023-11-19T05:23:33;63.90;;;10.18;;
40453;SDS011;26160;51.858;4.398;2023-11-19T05:26:02;70.28;;;10.80;;
40453;SDS011;26160;51.858;4.398;2023-11-19T05:28:29;72.90;;;10.13;;
40453;SDS011;26160;51.858;4.398;2023-11-19T05:30:55;71.35;;;9.50;;
40453;SDS011;26160;51.858;4.398;2023-11-19T05:33:21;64.35;;;10.88;;
40453;SDS011;26160;51.858;4.398;2023-11-19T05:35:47;66.38;;;11.10;;
40453;SDS011;26160;51.858;4.398;2023-11-19T05:38:13;64.95;;;12.02;;
40453;SDS011;26160;51.858;4.398;2023-11-19T05:40:40;78.15;;;10.45;;
40453;SDS011;26160;51.858;4.398;2023-11-19T05:43:07;68.07;;;11.10;;
40453;SDS011;26160;51.858;4.398;2023-11-19T05:45:33;79.75;;;11.25;;
40453;SDS011;26160;51.858;4.398;2023-11-19T05:47:59;78.53;;;10.75;;
40453;SDS011;26160;51.858;4.398;2023-11-19T05:50:25;75.05;;;10.25;;
40453;SDS011;26160;51.858;4.398;2023-11-19T05:52:53;71.35;;;9.75;;
40453;SDS011;26160;51.858;4.398;2023-11-19T05:55:19;68.03;;;11.15;;
40453;SDS011;26160;51.858;4.398;2023-11-19T05:57:45;74.25;;;11.43;;
40453;SDS011;26160;51.858;4.398;2023-11-19T06:00:11;64.17;;;10.90;;
40453;SDS011;26160;51.858;4.398;2023-11-19T06:02:38;72.53;;;9.77;;
40453;SDS011;26160;51.858;4.398;2023-11-19T06:05:05;69.95;;;9.70;;
40453;SDS011;26160;51.858;4.398;2023-11-19T06:07:32;71.88;;;10.38;;
40453;SDS011;26160;51.858;4.398;2023-11-19T06:09:58;71.85;;;11.60;;
40453;SDS011;26160;51.858;4.398;2023-11-19T06:12:25;64.57;;;10.10;;
40453;SDS011;26160;51.858;4.398;2023-11-19T06:14:53;71.00;;;10.40;;
40453;SDS011;26160;51.858;4.398;2023-11-19T06:17:19;86.88;;;13.10;;
40453;SDS011;26160;51.858;4.398;2023-11-19T06:19:45;68.57;;;10.43;;
40453;SDS011;26160;51.858;4.398;2023-11-19T06:22:11;72.93;;;10.60;;
40453;SDS011;26160;51.858;4.398;2023-11-19T06:24:37;77.28;;;11.60;;
40453;SDS011;26160;51.858;4.398;2023-11-19T06:27:03;63.05;;;10.45;;
40453;SDS011;26160;51.858;4.398;2023-11-19T06:29:30;81.10;;;11.13;;
40453;SDS011;26160;51.858;4.398;2023-11-19T06:31:56;54.08;;;10.07;;
40453;SDS011;26160;51.858;4.398;2023-11-19T06:34:22;75.75;;;11.18;;
40453;SDS011;26160;51.858;4.398;2023-11-19T06:36:48;68.22;;;10.50;;
40453;SDS011;26160;51.858;4.398;2023-11-19T06:39:15;71.68;;;11.10;;
40453;SDS011;26160;51.858;4.398;2023-11-19T06:41:45;72.30;;;10.35;;
40453;SDS011;26160;51.858;4.398;2023-11-19T06:44:12;59.80;;;9.25;;
40453;SDS011;26160;51.858;4.398;2023-11-19T06:46:38;60.63;;;9.23;;
40453;SDS011;26160;51.858;4.398;2023-11-19T06:49:05;76.97;;;11.20;;
40453;SDS011;26160;51.858;4.398;2023-11-19T06:51:33;81.20;;;10.75;;
40453;SDS011;26160;51.858;4.398;2023-11-19T06:53:59;83.38;;;11.80;;
40453;SDS011;26160;51.858;4.398;2023-11-19T06:56:26;67.40;;;8.82;;
40453;SDS011;26160;51.858;4.398;2023-11-19T06:58:52;70.10;;;10.27;;
40453;SDS011;26160;51.858;4.398;2023-11-19T07:01:19;73.28;;;11.10;;
40453;SDS011;26160;51.858;4.398;2023-11-19T07:03:45;71.13;;;10.70;;
40453;SDS011;26160;51.858;4.398;2023-11-19T07:06:12;69.88;;;10.60;;
40453;SDS011;26160;51.858;4.398;2023-11-19T07:08:41;68.22;;;10.35;;
40453;SDS011;26160;51.858;4.398;2023-11-19T07:11:10;66.63;;;10.80;;
40453;SDS011;26160;51.858;4.398;2023-11-19T07:13:37;63.42;;;9.30;;
40453;SDS011;26160;51.858;4.398;2023-11-19T07:16:03;67.13;;;9.52;;
40453;SDS011;26160;51.858;4.398;2023-11-19T07:18:30;65.18;;;10.20;;
40453;SDS011;26160;51.858;4.398;2023-11-19T07:20:57;81.63;;;11.13;;
40453;SDS011;26160;51.858;4.398;2023-11-19T07:23:25;71.93;;;10.00;;
40453;SDS011;26160;51.858;4.398;2023-11-19T07:25:51;70.63;;;10.63;;
40453;SDS011;26160;51.858;4.398;2023-11-19T07:28:19;73.53;;;9.65;;
40453;SDS011;26160;51.858;4.398;2023-11-19T07:30:45;75.93;;;11.73;;
40453;SDS011;26160;51.858;4.398;2023-11-19T07:33:11;70.22;;;10.40;;
40453;SDS011;26160;51.858;4.398;2023-11-19T07:35:39;70.82;;;10.25;;
40453;SDS011;26160;51.858;4.398;2023-11-19T07:38:07;71.45;;;10.50;;
40453;SDS011;26160;51.858;4.398;2023-11-19T07:40:34;64.30;;;9.95;;
40453;SDS011;26160;51.858;4.398;2023-11-19T07:43:00;63.60;;;9.57;;
40453;SDS011;26160;51.858;4.398;2023-11-19T07:45:26;64.57;;;10.45;;
40453;SDS011;26160;51.858;4.398;2023-11-19T07:47:53;62.33;;;9.77;;
40453;SDS011;26160;51.858;4.398;2023-11-19T07:50:20;56.92;;;9.20;;
40453;SDS011;26160;51.858;4.398;2023-11-19T07:52:46;72.38;;;9.85;;
40453;SDS011;26160;51.858;4.398;2023-11-19T07:55:12;64.85;;;9.27;;
40453;SDS011;26160;51.858;4.398;2023-11-19T07:57:38;74.57;;;11.60;;
40453;SDS011;26160;51.858;4.398;2023-11-19T08:00:05;70.57;;;11.35;;
40453;SDS011;26160;51.858;4.398;2023-11-19T08:02:32;60.60;;;10.32;;
40453;SDS011;26160;51.858;4.398;2023-11-19T08:04:58;66.20;;;10.45;;
40453;SDS011;26160;51.858;4.398;2023-11-19T08:07:24;66.55;;;9.73;;
40453;SDS011;26160;51.858;4.398;2023-11-19T08:09:50;54.22;;;8.55;;
40453;SDS011;26160;51.858;4.398;2023-11-19T08:12:17;70.50;;;11.32;;
40453;SDS011;26160;51.858;4.398;2023-11-19T08:14:43;67.90;;;9.93;;
40453;SDS011;26160;51.858;4.398;2023-11-19T08:17:09;64.22;;;9.55;;
40453;SDS011;26160;51.858;4.398;2023-11-19T08:19:35;60.20;;;9.63;;
40453;SDS011;26160;51.858;4.398;2023-11-19T08:22:02;59.88;;;10.10;;
40453;SDS011;26160;51.858;4.398;2023-11-19T08:24:28;62.38;;;9.68;;
40453;SDS011;26160;51.858;4.398;2023-11-19T08:26:54;55.70;;;9.13;;
40453;SDS011;26160;51.858;4.398;2023-11-19T08:29:20;60.55;;;9.57;;
40453;SDS011;26160;51.858;4.398;2023-11-19T08:31:47;50.15;;;8.77;;
40453;SDS011;26160;51.858;4.398;2023-11-19T08:34:13;57.08;;;9.40;;
40453;SDS011;26160;51.858;4.398;2023-11-19T08:36:40;53.00;;;10.30;;
40453;SDS011;26160;51.858;4.398;2023-11-19T08:39:06;62.55;;;10.25;;
40453;SDS011;26160;51.858;4.398;2023-11-19T08:41:34;55.13;;;9.10;;
40453;SDS011;26160;51.858;4.398;2023-11-19T08:44:00;53.58;;;8.80;;
40453;SDS011;26160;51.858;4.398;2023-11-19T08:46:26;52.17;;;9.50;;
40453;SDS011;26160;51.858;4.398;2023-11-19T08:48:52;53.88;;;8.88;;
40453;SDS011;26160;51.858;4.398;2023-11-19T08:51:21;49.42;;;7.55;;
40453;SDS011;26160;51.858;4.398;2023-11-19T08:53:50;58.28;;;9.80;;
40453;SDS011;26160;51.858;4.398;2023-11-19T08:56:23;49.60;;;8.48;;
40453;SDS011;26160;51.858;4.398;2023-11-19T08:58:50;46.63;;;8.52;;
40453;SDS011;26160;51.858;4.398;2023-11-19T09:01:16;44.45;;;8.18;;
40453;SDS011;26160;51.858;4.398;2023-11-19T09:03:42;44.90;;;7.85;;
40453;SDS011;26160;51.858;4.398;2023-11-19T09:06:08;46.78;;;8.00;;
40453;SDS011;26160;51.858;4.398;2023-11-19T09:08:34;44.95;;;8.65;;
40453;SDS011;26160;51.858;4.398;2023-11-19T09:11:00;40.40;;;7.68;;
40453;SDS011;26160;51.858;4.398;2023-11-19T09:13:31;47.75;;;7.72;;
40453;SDS011;26160;51.858;4.398;2023-11-19T09:15:57;56.78;;;8.55;;
40453;SDS011;26160;51.858;4.398;2023-11-19T09:18:29;48.33;;;8.55;;
40453;SDS011;26160;51.858;4.398;2023-11-19T09:20:55;57.85;;;8.55;;
40453;SDS011;26160;51.858;4.398;2023-11-19T09:23:21;49.05;;;9.52;;
40453;SDS011;26160;51.858;4.398;2023-11-19T09:25:47;56.08;;;7.68;;
40453;SDS011;26160;51.858;4.398;2023-11-19T09:28:13;61.90;;;9.65;;
40453;SDS011;26160;51.858;4.398;2023-11-19T09:30:40;49.33;;;8.68;;
40453;SDS011;26160;51.858;4.398;2023-11-19T09:33:06;60.15;;;9.30;;
40453;SDS011;26160;51.858;4.398;2023-11-19T09:35:33;46.05;;;9.13;;
40453;SDS011;26160;51.858;4.398;2023-11-19T09:37:59;59.55;;;9.20;;
40453;SDS011;26160;51.858;4.398;2023-11-19T09:40:25;50.75;;;8.10;;
40453;SDS011;26160;51.858;4.398;2023-11-19T09:42:53;59.38;;;8.88;;
40453;SDS011;26160;51.858;4.398;2023-11-19T09:48:32;44.47;;;8.10;;
40453;SDS011;26160;51.858;4.398;2023-11-19T09:51:02;50.42;;;8.88;;
40453;SDS011;26160;51.858;4.398;2023-11-19T09:53:39;52.50;;;8.88;;
40453;SDS011;26160;51.858;4.398;2023-11-19T09:56:19;52.53;;;9.43;;
40453;SDS011;26160;51.858;4.398;2023-11-19T09:59:03;53.35;;;8.85;;
40453;SDS011;26160;51.858;4.398;2023-11-19T10:01:57;55.35;;;8.18;;
40453;SDS011;26160;51.858;4.398;2023-11-19T10:04:27;47.05;;;9.10;;
40453;SDS011;26160;51.858;4.398;2023-11-19T10:07:35;58.55;;;8.25;;
40453;SDS011;26160;51.858;4.398;2023-11-19T10:10:25;46.85;;;8.70;;
40453;SDS011;26160;51.858;4.398;2023-11-19T10:12:58;53.75;;;8.38;;
40453;SDS011;26160;51.858;4.398;2023-11-19T10:15:26;47.08;;;8.68;;
40453;SDS011;26160;51.858;4.398;2023-11-19T10:17:55;50.63;;;8.30;;
40453;SDS011;26160;51.858;4.398;2023-11-19T10:20:22;54.75;;;9.18;;
40453;SDS011;26160;51.858;4.398;2023-11-19T10:22:52;45.65;;;8.70;;
40453;SDS011;26160;51.858;4.398;2023-11-19T10:25:29;47.80;;;9.13;;
40453;SDS011;26160;51.858;4.398;2023-11-19T10:27:55;49.70;;;8.60;;
40453;SDS011;26160;51.858;4.398;2023-11-19T10:30:23;51.75;;;9.43;;
40453;SDS011;26160;51.858;4.398;2023-11-19T10:35:53;47.53;;;8.77;;
40453;SDS011;26160;51.858;4.398;2023-11-19T10:38:22;49.13;;;9.07;;
40453;SDS011;26160;51.858;4.398;2023-11-19T10:40:49;51.85;;;9.10;;
40453;SDS011;26160;51.858;4.398;2023-11-19T10:43:16;54.40;;;8.90;;
40453;SDS011;26160;51.858;4.398;2023-11-19T10:45:43;63.53;;;10.27;;
40453;SDS011;26160;51.858;4.398;2023-11-19T10:48:10;46.25;;;8.18;;
40453;SDS011;26160;51.858;4.398;2023-11-19T10:50:39;50.53;;;8.90;;
40453;SDS011;26160;51.858;4.398;2023-11-19T10:53:06;57.10;;;8.70;;
40453;SDS011;26160;51.858;4.398;2023-11-19T10:55:36;48.38;;;8.63;;
40453;SDS011;26160;51.858;4.398;2023-11-19T10:58:07;45.50;;;7.80;;
40453;SDS011;26160;51.858;4.398;2023-11-19T11:01:18;39.88;;;7.20;;
40453;SDS011;26160;51.858;4.398;2023-11-19T11:03:29;40.67;;;7.43;;
40453;SDS011;26160;51.858;4.398;2023-11-19T11:06:05;42.97;;;7.53;;
40453;SDS011;26160;51.858;4.398;2023-11-19T11:08:32;42.30;;;7.50;;
40453;SDS011;26160;51.858;4.398;2023-11-19T11:11:04;36.67;;;7.63;;
40453;SDS011;26160;51.858;4.398;2023-11-19T11:13:33;41.33;;;7.05;;
40453;SDS011;26160;51.858;4.398;2023-11-19T11:15:59;42.53;;;6.85;;
40453;SDS011;26160;51.858;4.398;2023-11-19T11:18:27;47.97;;;6.53;;
40453;SDS011;26160;51.858;4.398;2023-11-19T11:20:54;38.20;;;6.75;;
40453;SDS011;26160;51.858;4.398;2023-11-19T11:28:52;41.78;;;8.82;;
40453;SDS011;26160;51.858;4.398;2023-11-19T11:31:36;45.22;;;7.25;;
40453;SDS011;26160;51.858;4.398;2023-11-19T11:40:04;36.33;;;7.43;;
40453;SDS011;26160;51.858;4.398;2023-11-19T11:42:36;48.50;;;8.48;;
40453;SDS011;26160;51.858;4.398;2023-11-19T11:57:51;52.85;;;9.07;;
40453;SDS011;26160;51.858;4.398;2023-11-19T12:02:57;53.10;;;8.60;;
40453;SDS011;26160;51.858;4.398;2023-11-19T12:05:25;42.95;;;8.30;;
40453;SDS011;26160;51.858;4.398;2023-11-19T12:10:31;43.50;;;7.32;;
40453;SDS011;26160;51.858;4.398;2023-11-19T12:13:01;47.17;;;8.75;;
40453;SDS011;26160;51.858;4.398;2023-11-19T12:15:27;44.05;;;7.88;;
40453;SDS011;26160;51.858;4.398;2023-11-19T12:17:54;41.58;;;7.93;;
40453;SDS011;26160;51.858;4.398;2023-11-19T12:20:26;52.78;;;9.05;;
40453;SDS011;26160;51.858;4.398;2023-11-19T12:22:52;48.47;;;8.90;;
40453;SDS011;26160;51.858;4.398;2023-11-19T12:25:19;48.92;;;8.07;;
40453;SDS011;26160;51.858;4.398;2023-11-19T12:27:46;43.63;;;8.45;;
40453;SDS011;26160;51.858;4.398;2023-11-19T12:30:32;41.65;;;7.47;;
40453;SDS011;26160;51.858;4.398;2023-11-19T12:32:58;40.65;;;7.68;;
40453;SDS011;26160;51.858;4.398;2023-11-19T12:35:24;44.63;;;8.38;;
40453;SDS011;26160;51.858;4.398;2023-11-19T12:37:51;50.33;;;9.10;;
40453;SDS011;26160;51.858;4.398;2023-11-19T12:40:22;46.00;;;8.80;;
40453;SDS011;26160;51.858;4.398;2023-11-19T12:42:50;39.38;;;7.35;;
40453;SDS011;26160;51.858;4.398;2023-11-19T12:45:18;44.22;;;6.82;;
40453;SDS011;26160;51.858;4.398;2023-11-19T12:47:46;42.17;;;6.50;;
40453;SDS011;26160;51.858;4.398;2023-11-19T12:50:14;38.28;;;7.35;;
40453;SDS011;26160;51.858;4.398;2023-11-19T12:53:02;40.15;;;6.43;;
40453;SDS011;26160;51.858;4.398;2023-11-19T12:55:28;39.60;;;5.85;;
40453;SDS011;26160;51.858;4.398;2023-11-19T12:57:55;30.95;;;6.30;;
40453;SDS011;26160;51.858;4.398;2023-11-19T13:00:24;34.50;;;6.70;;
40453;SDS011;26160;51.858;4.398;2023-11-19T13:02:52;35.42;;;5.95;;
40453;SDS011;26160;51.858;4.398;2023-11-19T13:08:04;45.83;;;7.07;;
40453;SDS011;26160;51.858;4.398;2023-11-19T13:10:48;39.42;;;7.85;;
40453;SDS011;26160;51.858;4.398;2023-11-19T13:13:19;39.60;;;6.82;;
40453;SDS011;26160;51.858;4.398;2023-11-19T13:15:45;47.60;;;8.60;;
40453;SDS011;26160;51.858;4.398;2023-11-19T13:18:12;44.40;;;7.05;;
40453;SDS011;26160;51.858;4.398;2023-11-19T13:20:39;34.50;;;6.88;;
40453;SDS011;26160;51.858;4.398;2023-11-19T13:23:06;40.83;;;6.90;;
40453;SDS011;26160;51.858;4.398;2023-11-19T13:25:36;45.10;;;8.48;;
40453;SDS011;26160;51.858;4.398;2023-11-19T13:28:02;44.42;;;7.28;;
40453;SDS011;26160;51.858;4.398;2023-11-19T13:30:28;41.92;;;7.78;;
40453;SDS011;26160;51.858;4.398;2023-11-19T13:32:57;49.65;;;8.55;;
40453;SDS011;26160;51.858;4.398;2023-11-19T13:35:24;40.78;;;7.45;;
40453;SDS011;26160;51.858;4.398;2023-11-19T13:37:50;43.30;;;8.77;;
40453;SDS011;26160;51.858;4.398;2023-11-19T13:40:17;48.63;;;7.93;;
40453;SDS011;26160;51.858;4.398;2023-11-19T13:42:44;45.92;;;7.03;;
40453;SDS011;26160;51.858;4.398;2023-11-19T13:45:11;51.78;;;8.77;;
40453;SDS011;26160;51.858;4.398;2023-11-19T13:47:39;42.00;;;7.35;;
40453;SDS011;26160;51.858;4.398;2023-11-19T13:50:14;47.28;;;8.02;;
40453;SDS011;26160;51.858;4.398;2023-11-19T13:52:42;56.97;;;9.57;;
40453;SDS011;26160;51.858;4.398;2023-11-19T13:55:11;53.15;;;8.40;;
40453;SDS011;26160;51.858;4.398;2023-11-19T13:57:38;39.92;;;6.85;;
40453;SDS011;26160;51.858;4.398;2023-11-19T14:00:06;46.13;;;6.93;;
40453;SDS011;26160;51.858;4.398;2023-11-19T14:02:47;50.63;;;8.13;;
40453;SDS011;26160;51.858;4.398;2023-11-19T14:05:14;49.17;;;7.43;;
40453;SDS011;26160;51.858;4.398;2023-11-19T14:07:43;40.45;;;7.30;;
40453;SDS011;26160;51.858;4.398;2023-11-19T14:10:09;47.65;;;7.38;;
40453;SDS011;26160;51.858;4.398;2023-11-19T14:12:39;38.63;;;7.35;;
40453;SDS011;26160;51.858;4.398;2023-11-19T14:15:05;43.88;;;8.07;;
40453;SDS011;26160;51.858;4.398;2023-11-19T14:17:32;40.60;;;6.50;;
40453;SDS011;26160;51.858;4.398;2023-11-19T14:20:02;51.88;;;8.93;;
40453;SDS011;26160;51.858;4.398;2023-11-19T14:22:38;41.10;;;6.63;;
40453;SDS011;26160;51.858;4.398;2023-11-19T14:25:09;45.47;;;7.13;;
40453;SDS011;26160;51.858;4.398;2023-11-19T14:27:39;38.60;;;7.15;;
40453;SDS011;26160;51.858;4.398;2023-11-19T14:30:07;44.65;;;6.68;;
40453;SDS011;26160;51.858;4.398;2023-11-19T14:32:36;32.97;;;7.28;;
40453;SDS011;26160;51.858;4.398;2023-11-19T14:35:04;40.72;;;6.25;;
40453;SDS011;26160;51.858;4.398;2023-11-19T14:37:30;38.90;;;6.60;;
40453;SDS011;26160;51.858;4.398;2023-11-19T14:39:57;36.83;;;7.68;;
40453;SDS011;26160;51.858;4.398;2023-11-19T14:42:23;39.47;;;7.30;;
40453;SDS011;26160;51.858;4.398;2023-11-19T14:44:51;39.95;;;6.65;;
40453;SDS011;26160;51.858;4.398;2023-11-19T14:47:21;38.35;;;6.97;;
40453;SDS011;26160;51.858;4.398;2023-11-19T14:49:47;36.47;;;6.60;;
40453;SDS011;26160;51.858;4.398;2023-11-19T14:52:14;36.55;;;7.13;;
40453;SDS011;26160;51.858;4.398;2023-11-19T14:54:40;51.90;;;7.65;;
40453;SDS011;26160;51.858;4.398;2023-11-19T14:57:06;39.80;;;7.05;;
40453;SDS011;26160;51.858;4.398;2023-11-19T14:59:39;45.08;;;7.22;;
40453;SDS011;26160;51.858;4.398;2023-11-19T15:02:05;41.03;;;7.13;;
40453;SDS011;26160;51.858;4.398;2023-11-19T15:04:31;32.47;;;6.55;;
40453;SDS011;26160;51.858;4.398;2023-11-19T15:06:58;38.10;;;6.75;;
40453;SDS011;26160;51.858;4.398;2023-11-19T15:09:25;31.17;;;6.18;;
40453;SDS011;26160;51.858;4.398;2023-11-19T15:11:54;37.03;;;5.82;;
40453;SDS011;26160;51.858;4.398;2023-11-19T15:14:21;31.35;;;5.75;;
40453;SDS011;26160;51.858;4.398;2023-11-19T15:16:47;32.97;;;6.10;;